createdAt,value
2022-08-19T00:00:31.244Z,965.72
2022-08-19T00:01:31.302Z,965.79
2022-08-19T00:02:31.285Z,965.71
2022-08-19T00:03:31.191Z,965.77
2022-08-19T00:04:31.297Z,965.77
2022-08-19T00:05:31.163Z,965.73
2022-08-19T00:06:31.154Z,965.82
2022-08-19T00:07:31.135Z,965.76
2022-08-19T00:08:31.120Z,965.79
2022-08-19T00:09:31.135Z,965.77
2022-08-19T00:10:31.081Z,965.72
2022-08-19T00:11:31.236Z,965.72
2022-08-19T00:12:31.101Z,965.70
2022-08-19T00:13:31.046Z,965.74
2022-08-19T00:14:31.020Z,965.72
2022-08-19T00:15:31.029Z,965.69
2022-08-19T00:16:30.979Z,965.72
2022-08-19T00:17:30.942Z,965.69
2022-08-19T00:18:30.963Z,965.67
2022-08-19T00:19:30.950Z,965.71
2022-08-19T00:20:30.901Z,965.70
2022-08-19T00:21:30.874Z,965.63
2022-08-19T00:22:30.911Z,965.67
2022-08-19T00:23:30.883Z,965.69
2022-08-19T00:24:30.991Z,965.68
2022-08-19T00:25:30.933Z,965.76
2022-08-19T00:26:30.839Z,965.71
2022-08-19T00:27:30.828Z,965.70
2022-08-19T00:28:30.804Z,965.65
2022-08-19T00:29:30.906Z,965.68
2022-08-19T00:30:30.821Z,965.68
2022-08-19T00:31:30.741Z,965.63
2022-08-19T00:32:30.750Z,965.62
2022-08-19T00:33:31.117Z,965.66
2022-08-19T00:34:30.854Z,965.66
2022-08-19T00:35:30.803Z,965.67
2022-08-19T00:36:30.615Z,965.75
2022-08-19T00:37:30.655Z,965.70
2022-08-19T00:38:35.271Z,965.71
2022-08-19T00:39:31.774Z,965.71
2022-08-19T00:40:30.661Z,965.71
2022-08-19T00:41:30.692Z,965.64
2022-08-19T00:42:30.586Z,965.66
2022-08-19T00:43:30.523Z,965.67
2022-08-19T00:44:30.517Z,965.59
2022-08-19T00:45:30.560Z,965.57
2022-08-19T00:46:30.508Z,965.61
2022-08-19T00:47:30.436Z,965.64
2022-08-19T00:48:30.403Z,965.59
2022-08-19T00:49:30.412Z,965.61
2022-08-19T00:50:30.374Z,965.65
2022-08-19T00:51:30.404Z,965.65
2022-08-19T00:52:30.788Z,965.57
2022-08-19T00:53:30.321Z,965.63
2022-08-19T00:54:31.288Z,965.65
2022-08-19T00:55:30.283Z,965.60
2022-08-19T00:56:30.273Z,965.64
2022-08-19T00:57:30.248Z,965.57
2022-08-19T00:58:30.231Z,965.60
2022-08-19T01:00:01.128Z,965.66
2022-08-19T01:00:31.311Z,965.62
2022-08-19T01:01:30.276Z,965.63
2022-08-19T01:02:30.184Z,965.64
2022-08-19T01:03:57.192Z,965.57
2022-08-19T01:04:31.405Z,965.53
2022-08-19T01:05:30.162Z,965.52
2022-08-19T01:06:30.221Z,965.48
2022-08-19T01:07:35.926Z,965.46
2022-08-19T01:08:31.173Z,965.42
2022-08-19T01:09:30.064Z,965.46
2022-08-19T01:10:34.731Z,965.45
2022-08-19T01:11:32.074Z,965.43
2022-08-19T01:12:29.983Z,965.48
2022-08-19T01:13:30.135Z,965.46
2022-08-19T01:14:31.099Z,965.43
2022-08-19T01:15:30.036Z,965.46
2022-08-19T01:16:30.024Z,965.39
2022-08-19T01:17:30.017Z,965.39
2022-08-19T01:18:29.932Z,965.35
2022-08-19T01:19:29.893Z,965.36
2022-08-19T01:20:29.926Z,965.34
2022-08-19T01:21:29.921Z,965.36
2022-08-19T01:22:33.486Z,965.32
2022-08-19T01:23:30.907Z,965.36
2022-08-19T01:24:29.867Z,965.33
2022-08-19T01:25:29.766Z,965.29
2022-08-19T01:26:31.193Z,965.31
2022-08-19T01:27:43.294Z,965.35
2022-08-19T01:28:33.972Z,965.34
2022-08-19T01:29:29.723Z,965.31
2022-08-19T01:30:29.743Z,965.31
2022-08-19T01:31:29.660Z,965.40
2022-08-19T01:32:32.402Z,965.34
2022-08-19T01:33:29.619Z,965.42
2022-08-19T01:34:29.636Z,965.37
2022-08-19T01:35:29.698Z,965.39
2022-08-19T01:36:29.614Z,965.36
2022-08-19T01:37:29.607Z,965.35
2022-08-19T01:38:29.542Z,965.42
2022-08-19T01:39:29.582Z,965.43
2022-08-19T01:40:29.591Z,965.42
2022-08-19T01:41:29.480Z,965.47
2022-08-19T01:42:30.430Z,965.49
2022-08-19T01:43:29.455Z,965.50
2022-08-19T01:44:29.486Z,965.52
2022-08-19T01:45:29.563Z,965.47
2022-08-19T01:46:29.473Z,965.44
2022-08-19T01:47:29.540Z,965.43
2022-08-19T01:48:29.425Z,965.41
2022-08-19T01:49:29.437Z,965.47
2022-08-19T01:50:29.456Z,965.42
2022-08-19T01:51:29.478Z,965.46
2022-08-19T01:52:30.431Z,965.43
2022-08-19T01:53:30.621Z,965.50
2022-08-19T01:54:29.372Z,965.51
2022-08-19T01:55:29.270Z,965.44
2022-08-19T01:56:29.326Z,965.51
2022-08-19T01:57:29.280Z,965.52
2022-08-19T01:58:29.290Z,965.51
2022-08-19T01:59:29.254Z,965.56
2022-08-19T02:00:29.300Z,965.53
2022-08-19T02:01:31.321Z,965.55
2022-08-19T02:02:29.114Z,965.59
2022-08-19T02:03:29.273Z,965.55
2022-08-19T02:04:29.190Z,965.52
2022-08-19T02:05:30.168Z,965.48
2022-08-19T02:06:29.055Z,965.50
2022-08-19T02:07:29.138Z,965.52
2022-08-19T02:08:29.635Z,965.49
2022-08-19T02:09:29.103Z,965.43
2022-08-19T02:10:29.122Z,965.50
2022-08-19T02:11:28.961Z,965.45
2022-08-19T02:12:28.966Z,965.46
2022-08-19T02:13:28.925Z,965.56
2022-08-19T02:14:28.928Z,965.53
2022-08-19T02:15:29.398Z,965.52
2022-08-19T02:16:28.898Z,965.51
2022-08-19T02:17:28.850Z,965.50
2022-08-19T02:18:28.858Z,965.46
2022-08-19T02:19:28.863Z,965.41
2022-08-19T02:20:28.831Z,965.49
2022-08-19T02:21:28.791Z,965.49
2022-08-19T02:22:28.798Z,965.50
2022-08-19T02:23:28.756Z,965.44
2022-08-19T02:24:28.796Z,965.47
2022-08-19T02:25:28.864Z,965.46
2022-08-19T02:26:28.755Z,965.47
2022-08-19T02:27:28.764Z,965.42
2022-08-19T02:28:28.667Z,965.37
2022-08-19T02:29:28.723Z,965.38
2022-08-19T02:30:28.677Z,965.35
2022-08-19T02:31:28.705Z,965.41
2022-08-19T02:32:28.660Z,965.43
2022-08-19T02:33:28.749Z,965.44
2022-08-19T02:34:28.636Z,965.42
2022-08-19T02:35:28.616Z,965.46
2022-08-19T02:36:28.588Z,965.46
2022-08-19T02:37:28.575Z,965.47
2022-08-19T02:38:28.501Z,965.42
2022-08-19T02:39:28.563Z,965.40
2022-08-19T02:40:28.519Z,965.39
2022-08-19T02:41:28.455Z,965.40
2022-08-19T02:42:28.462Z,965.44
2022-08-19T02:43:28.433Z,965.54
2022-08-19T02:44:31.623Z,965.53
2022-08-19T02:45:28.484Z,965.51
2022-08-19T02:46:28.529Z,965.55
2022-08-19T02:47:28.401Z,965.56
2022-08-19T02:48:28.341Z,965.53
2022-08-19T02:49:28.375Z,965.42
2022-08-19T02:50:28.433Z,965.43
2022-08-19T02:51:28.334Z,965.44
2022-08-19T02:52:28.351Z,965.37
2022-08-19T02:53:28.242Z,965.41
2022-08-19T02:54:28.272Z,965.38
2022-08-19T02:55:28.261Z,965.43
2022-08-19T02:56:28.250Z,965.37
2022-08-19T02:57:28.168Z,965.36
2022-08-19T02:58:28.154Z,965.37
2022-08-19T02:59:28.131Z,965.41
2022-08-19T03:00:28.162Z,965.38
2022-08-19T03:01:28.169Z,965.39
2022-08-19T03:02:28.174Z,965.44
2022-08-19T03:03:28.067Z,965.46
2022-08-19T03:04:28.055Z,965.47
2022-08-19T03:05:46.861Z,965.49
2022-08-19T03:06:29.113Z,965.45
2022-08-19T03:07:28.593Z,965.53
2022-08-19T03:08:28.124Z,965.52
2022-08-19T03:09:28.039Z,965.46
2022-08-19T03:10:28.050Z,965.47
2022-08-19T03:11:28.002Z,965.49
2022-08-19T03:12:29.058Z,965.46
2022-08-19T03:13:28.015Z,965.42
2022-08-19T03:14:27.994Z,965.43
2022-08-19T03:15:27.969Z,965.47
2022-08-19T03:16:27.998Z,965.40
2022-08-19T03:17:27.891Z,965.45
2022-08-19T03:18:27.854Z,965.48
2022-08-19T03:19:27.845Z,965.48
2022-08-19T03:20:27.872Z,965.53
2022-08-19T03:21:27.860Z,965.52
2022-08-19T03:22:27.922Z,965.59
2022-08-19T03:23:27.781Z,965.56
2022-08-19T03:24:27.757Z,965.60
2022-08-19T03:25:27.833Z,965.56
2022-08-19T03:26:27.717Z,965.55
2022-08-19T03:27:32.478Z,965.53
2022-08-19T03:28:29.643Z,965.53
2022-08-19T03:29:30.622Z,965.52
2022-08-19T03:30:27.631Z,965.53
2022-08-19T03:31:43.518Z,965.53
2022-08-19T03:32:32.802Z,965.58
2022-08-19T03:33:28.579Z,965.59
2022-08-19T03:34:27.590Z,965.53
2022-08-19T03:35:27.549Z,965.59
2022-08-19T03:36:27.553Z,965.55
2022-08-19T03:37:27.608Z,965.52
2022-08-19T03:38:27.518Z,965.58
2022-08-19T03:39:27.603Z,965.66
2022-08-19T03:40:27.533Z,965.62
2022-08-19T03:41:27.479Z,965.72
2022-08-19T03:42:38.481Z,965.69
2022-08-19T03:43:28.418Z,965.70
2022-08-19T03:44:27.360Z,965.74
2022-08-19T03:45:27.371Z,965.66
2022-08-19T03:46:27.441Z,965.77
2022-08-19T03:47:27.436Z,965.77
2022-08-19T03:48:27.339Z,965.79
2022-08-19T03:49:28.420Z,965.76
2022-08-19T03:50:27.301Z,965.73
2022-08-19T03:51:30.603Z,965.77
2022-08-19T03:52:27.383Z,965.80
2022-08-19T03:53:27.215Z,965.80
2022-08-19T03:54:27.326Z,965.76
2022-08-19T03:55:27.257Z,965.79
2022-08-19T03:56:27.174Z,965.82
2022-08-19T03:57:31.663Z,965.80
2022-08-19T03:58:27.244Z,965.81
2022-08-19T03:59:27.231Z,965.81
2022-08-19T04:00:27.173Z,965.77
2022-08-19T04:01:33.061Z,965.74
2022-08-19T04:02:28.106Z,965.74
2022-08-19T04:03:27.070Z,965.76
2022-08-19T04:04:29.265Z,965.75
2022-08-19T04:05:27.588Z,965.77
2022-08-19T04:06:27.044Z,965.75
2022-08-19T04:07:27.065Z,965.84
2022-08-19T04:08:27.055Z,965.83
2022-08-19T04:09:27.050Z,965.92
2022-08-19T04:10:27.039Z,965.85
2022-08-19T04:11:43.081Z,965.81
2022-08-19T04:12:27.958Z,965.88
2022-08-19T04:13:26.911Z,965.85
2022-08-19T04:14:26.845Z,965.78
2022-08-19T04:15:26.918Z,965.91
2022-08-19T04:16:35.212Z,965.93
2022-08-19T04:17:27.840Z,965.90
2022-08-19T04:18:26.873Z,965.86
2022-08-19T04:19:26.800Z,965.94
2022-08-19T04:20:26.842Z,965.89
2022-08-19T04:21:26.895Z,965.92
2022-08-19T04:22:26.799Z,965.91
2022-08-19T04:23:26.757Z,965.90
2022-08-19T04:24:27.339Z,965.95
2022-08-19T04:25:26.769Z,965.96
2022-08-19T04:26:26.684Z,965.93
2022-08-19T04:27:26.657Z,965.90
2022-08-19T04:28:27.658Z,965.87
2022-08-19T04:29:26.607Z,965.90
2022-08-19T04:30:26.711Z,965.87
2022-08-19T04:31:26.677Z,965.85
2022-08-19T04:32:26.645Z,965.86
2022-08-19T04:33:28.456Z,965.89
2022-08-19T04:34:26.544Z,965.88
2022-08-19T04:35:26.486Z,965.89
2022-08-19T04:36:26.599Z,965.89
2022-08-19T04:37:26.555Z,965.87
2022-08-19T04:38:26.856Z,965.89
2022-08-19T04:39:26.518Z,965.84
2022-08-19T04:40:26.482Z,965.89
2022-08-19T04:41:26.400Z,965.86
2022-08-19T04:42:30.683Z,965.82
2022-08-19T04:43:26.359Z,965.83
2022-08-19T04:44:26.372Z,965.91
2022-08-19T04:45:26.407Z,965.86
2022-08-19T04:46:39.463Z,965.90
2022-08-19T04:47:47.651Z,965.84
2022-08-19T04:48:27.963Z,965.89
2022-08-19T04:49:26.282Z,965.83
2022-08-19T04:50:26.276Z,965.86
2022-08-19T04:51:26.284Z,965.81
2022-08-19T04:52:26.243Z,965.79
2022-08-19T04:53:26.232Z,965.75
2022-08-19T04:54:37.335Z,965.82
2022-08-19T04:55:27.199Z,965.77
2022-08-19T04:56:26.202Z,965.79
2022-08-19T04:57:26.150Z,965.76
2022-08-19T04:58:26.072Z,965.76
2022-08-19T04:59:26.107Z,965.82
2022-08-19T05:00:26.087Z,965.81
2022-08-19T05:01:26.085Z,965.84
2022-08-19T05:02:26.053Z,965.86
2022-08-19T05:03:30.093Z,965.81
2022-08-19T05:04:26.991Z,965.88
2022-08-19T05:05:26.076Z,965.89
2022-08-19T05:06:26.025Z,965.91
2022-08-19T05:07:25.909Z,965.94
2022-08-19T05:08:31.539Z,965.89
2022-08-19T05:09:26.990Z,965.95
2022-08-19T05:10:25.917Z,965.95
2022-08-19T05:11:26.680Z,965.90
2022-08-19T05:12:29.134Z,965.89
2022-08-19T05:13:25.897Z,965.84
2022-08-19T05:14:25.855Z,965.91
2022-08-19T05:15:25.795Z,965.90
2022-08-19T05:16:25.911Z,965.91
2022-08-19T05:17:28.523Z,965.93
2022-08-19T05:18:26.832Z,965.89
2022-08-19T05:19:25.769Z,965.87
2022-08-19T05:20:25.746Z,965.90
2022-08-19T05:21:25.854Z,965.90
2022-08-19T05:22:25.657Z,965.93
2022-08-19T05:23:25.799Z,965.90
2022-08-19T05:24:25.748Z,965.94
2022-08-19T05:25:25.615Z,965.89
2022-08-19T05:26:26.092Z,965.88
2022-08-19T05:27:25.694Z,965.89
2022-08-19T05:28:25.570Z,965.91
2022-08-19T05:29:25.544Z,965.85
2022-08-19T05:30:42.154Z,965.82
2022-08-19T05:31:26.696Z,965.92
2022-08-19T05:32:25.667Z,965.89
2022-08-19T05:33:25.574Z,965.95
2022-08-19T05:34:25.572Z,965.85
2022-08-19T05:35:25.520Z,965.88
2022-08-19T05:36:25.502Z,965.95
2022-08-19T05:37:25.545Z,965.91
2022-08-19T05:38:25.438Z,965.89
2022-08-19T05:39:25.491Z,965.93
2022-08-19T05:40:25.405Z,965.86
2022-08-19T05:41:25.361Z,965.87
2022-08-19T05:42:25.411Z,965.92
2022-08-19T05:43:25.365Z,965.89
2022-08-19T05:44:25.339Z,965.90
2022-08-19T05:45:25.289Z,965.90
2022-08-19T05:46:28.193Z,965.83
2022-08-19T05:47:25.299Z,965.89
2022-08-19T05:48:25.382Z,965.86
2022-08-19T05:49:25.260Z,965.85
2022-08-19T05:50:25.193Z,965.77
2022-08-19T05:51:28.828Z,965.86
2022-08-19T05:52:26.569Z,965.82
2022-08-19T05:53:25.259Z,965.86
2022-08-19T05:54:25.184Z,965.88
2022-08-19T05:55:25.101Z,965.84
2022-08-19T05:56:25.193Z,965.87
2022-08-19T05:57:25.233Z,965.81
2022-08-19T05:58:25.066Z,965.85
2022-08-19T05:59:25.726Z,965.82
2022-08-19T06:00:25.032Z,965.81
2022-08-19T06:01:25.088Z,965.79
2022-08-19T06:02:25.127Z,965.78
2022-08-19T06:03:24.992Z,965.78
2022-08-19T06:04:25.034Z,965.73
2022-08-19T06:05:25.147Z,965.74
2022-08-19T06:06:25.070Z,965.72
2022-08-19T06:07:24.991Z,965.80
2022-08-19T06:08:34.119Z,965.83
2022-08-19T06:09:25.987Z,965.84
2022-08-19T06:10:24.903Z,965.77
2022-08-19T06:11:24.939Z,965.88
2022-08-19T06:12:25.025Z,965.85
2022-08-19T06:13:24.913Z,965.82
2022-08-19T06:14:28.047Z,965.76
2022-08-19T06:15:24.847Z,965.72
2022-08-19T06:18:10.353Z,965.75
2022-08-19T06:19:11.501Z,965.84
2022-08-19T06:20:11.907Z,965.84
2022-08-19T06:21:11.512Z,965.78
2022-08-19T06:22:11.452Z,965.81
2022-08-19T06:23:11.439Z,965.81
2022-08-19T06:24:12.446Z,965.84
2022-08-19T06:25:11.418Z,965.82
2022-08-19T06:26:11.428Z,965.78
2022-08-19T06:27:11.376Z,965.81
2022-08-19T06:28:15.023Z,965.88
2022-08-19T06:29:12.344Z,965.89
2022-08-19T06:30:12.326Z,965.78
2022-08-19T06:31:11.352Z,965.82
2022-08-19T06:32:11.288Z,965.88
2022-08-19T06:33:11.322Z,965.92
2022-08-19T06:34:11.990Z,965.96
2022-08-19T06:35:11.244Z,965.96
2022-08-19T06:36:11.283Z,966.01
2022-08-19T06:37:11.209Z,965.98
2022-08-19T06:38:11.209Z,965.92
2022-08-19T06:39:11.193Z,966.07
2022-08-19T06:40:11.266Z,966.07
2022-08-19T06:41:11.184Z,966.04
2022-08-19T06:42:11.270Z,966.07
2022-08-19T06:43:11.118Z,966.07
2022-08-19T06:44:13.277Z,966.07
2022-08-19T06:45:11.081Z,966.11
2022-08-19T06:46:11.114Z,966.10
2022-08-19T06:47:14.199Z,966.16
2022-08-19T06:48:11.651Z,966.12
2022-08-19T06:49:11.077Z,966.08
2022-08-19T06:50:11.006Z,966.16
2022-08-19T06:51:11.079Z,966.13
2022-08-19T06:52:13.945Z,966.08
2022-08-19T06:53:10.978Z,966.13
2022-08-19T06:54:19.233Z,966.15
2022-08-19T06:55:11.934Z,966.18
2022-08-19T06:56:10.973Z,966.20
2022-08-19T06:57:10.895Z,966.16
2022-08-19T06:58:10.885Z,966.19
2022-08-19T06:59:10.864Z,966.19
2022-08-19T07:00:12.804Z,966.23
2022-08-19T07:01:11.878Z,966.29
2022-08-19T07:02:10.851Z,966.23
2022-08-19T07:03:13.316Z,966.32
2022-08-19T07:04:12.076Z,966.40
2022-08-19T07:05:10.776Z,966.41
2022-08-19T07:06:21.339Z,966.45
2022-08-19T07:07:20.962Z,966.47
2022-08-19T07:08:11.740Z,966.54
2022-08-19T07:09:10.708Z,966.54
2022-08-19T07:10:10.690Z,966.54
2022-08-19T07:11:10.867Z,966.68
2022-08-19T07:12:10.668Z,966.63
2022-08-19T07:13:10.653Z,966.73
2022-08-19T07:14:16.673Z,966.80
2022-08-19T07:15:11.621Z,966.69
2022-08-19T07:16:10.633Z,966.64
2022-08-19T07:17:10.585Z,966.59
2022-08-19T07:18:11.752Z,966.55
2022-08-19T07:19:15.739Z,966.64
2022-08-19T07:20:11.551Z,966.50
2022-08-19T07:21:10.549Z,966.53
2022-08-19T07:22:13.154Z,966.52
2022-08-19T07:23:10.536Z,966.45
2022-08-19T07:24:11.479Z,966.50
2022-08-19T07:25:10.484Z,966.52
2022-08-19T07:26:10.481Z,966.48
2022-08-19T07:27:10.608Z,966.42
2022-08-19T07:28:20.194Z,966.42
2022-08-19T07:29:11.410Z,966.51
2022-08-19T07:30:11.734Z,966.47
2022-08-19T07:31:10.399Z,966.48
2022-08-19T07:32:11.579Z,966.48
2022-08-19T07:33:10.340Z,966.53
2022-08-19T07:34:10.330Z,966.59
2022-08-19T07:35:10.317Z,966.55
2022-08-19T07:36:10.337Z,966.59
2022-08-19T07:37:10.287Z,966.62
2022-08-19T07:38:10.265Z,966.65
2022-08-19T07:39:10.252Z,966.62
2022-08-19T07:40:10.301Z,966.68
2022-08-19T07:41:10.279Z,966.69
2022-08-19T07:42:10.225Z,966.67
2022-08-19T07:43:13.943Z,966.65
2022-08-19T07:44:11.177Z,966.58
2022-08-19T07:45:10.151Z,966.63
2022-08-19T07:47:47.073Z,966.65
2022-08-19T07:48:11.119Z,966.68
2022-08-19T07:49:10.111Z,966.73
2022-08-19T07:50:10.088Z,966.66
2022-08-19T07:51:10.089Z,966.69
2022-08-19T07:52:10.054Z,966.71
2022-08-19T07:53:10.050Z,966.71
2022-08-19T07:54:10.022Z,966.65
2022-08-19T07:55:39.822Z,966.71
2022-08-19T07:56:11.028Z,966.73
2022-08-19T07:57:09.984Z,966.86
2022-08-19T07:58:09.973Z,966.70
2022-08-19T07:59:09.943Z,966.59
2022-08-19T08:00:09.951Z,966.68
2022-08-19T08:01:09.955Z,966.64
2022-08-19T08:02:09.965Z,966.65
2022-08-19T08:03:09.884Z,966.68
2022-08-19T08:04:10.115Z,966.60
2022-08-19T08:05:09.865Z,966.64
2022-08-19T08:06:09.886Z,966.65
2022-08-19T08:07:09.836Z,966.58
2022-08-19T08:08:09.813Z,966.65
2022-08-19T08:09:09.887Z,966.62
2022-08-19T08:10:21.062Z,966.64
2022-08-19T08:11:11.873Z,966.69
2022-08-19T08:12:18.424Z,966.63
2022-08-19T08:13:11.887Z,966.57
2022-08-19T08:14:09.724Z,966.69
2022-08-19T08:15:12.507Z,966.68
2022-08-19T08:16:10.218Z,966.66
2022-08-19T08:17:10.918Z,966.62
2022-08-19T08:18:09.666Z,966.60
2022-08-19T08:19:14.815Z,966.64
2022-08-19T08:20:10.632Z,966.63
2022-08-19T08:21:09.681Z,966.54
2022-08-19T08:22:09.637Z,966.65
2022-08-19T08:23:09.676Z,966.69
2022-08-19T08:24:09.596Z,966.63
2022-08-19T08:25:09.560Z,966.60
2022-08-19T08:26:09.575Z,966.62
2022-08-19T08:27:11.201Z,966.70
2022-08-19T08:28:09.513Z,966.85
2022-08-19T08:29:12.843Z,966.87
2022-08-19T08:30:09.481Z,966.84
2022-08-19T08:31:09.916Z,966.82
2022-08-19T08:32:14.224Z,966.75
2022-08-19T08:33:10.478Z,966.85
2022-08-19T08:34:09.499Z,966.97
2022-08-19T08:35:09.415Z,967.02
2022-08-19T08:36:09.419Z,966.90
2022-08-19T08:37:09.381Z,966.75
2022-08-19T08:38:09.353Z,966.82
2022-08-19T08:39:09.344Z,966.80
2022-08-19T08:40:13.101Z,966.80
2022-08-19T08:41:10.330Z,966.85
2022-08-19T08:42:10.336Z,966.90
2022-08-19T08:43:11.429Z,966.84
2022-08-19T08:44:09.266Z,966.91
2022-08-19T08:45:10.249Z,966.93
2022-08-19T08:46:09.253Z,966.91
2022-08-19T08:47:09.218Z,966.93
2022-08-19T08:48:22.493Z,966.96
2022-08-19T08:49:10.198Z,967.05
2022-08-19T08:50:09.178Z,966.91
2022-08-19T08:51:09.234Z,966.93
2022-08-19T08:52:09.141Z,966.92
2022-08-19T08:53:09.125Z,966.90
2022-08-19T08:54:09.864Z,966.85
2022-08-19T08:55:10.109Z,966.77
2022-08-19T08:56:09.126Z,966.83
2022-08-19T08:57:09.056Z,966.81
2022-08-19T08:58:09.070Z,966.83
2022-08-19T08:59:09.040Z,966.88
2022-08-19T09:00:15.159Z,966.79
2022-08-19T09:01:10.035Z,966.82
2022-08-19T09:02:08.980Z,966.82
2022-08-19T09:03:08.966Z,966.91
2022-08-19T09:04:08.953Z,966.91
2022-08-19T09:05:08.929Z,966.91
2022-08-19T09:06:11.851Z,966.90
2022-08-19T09:07:18.474Z,966.84
2022-08-19T09:08:09.914Z,966.91
2022-08-19T09:09:11.861Z,966.92
2022-08-19T09:10:08.861Z,966.87
2022-08-19T09:11:08.871Z,966.86
2022-08-19T09:12:08.836Z,966.97
2022-08-19T09:13:09.374Z,966.96
2022-08-19T09:14:12.938Z,966.96
2022-08-19T09:15:09.783Z,966.94
2022-08-19T09:16:08.805Z,966.94
2022-08-19T09:17:08.769Z,966.94
2022-08-19T09:18:08.734Z,967.01
2022-08-19T09:19:09.744Z,967.05
2022-08-19T09:20:09.025Z,966.99
2022-08-19T09:21:08.716Z,966.96
2022-08-19T09:22:08.667Z,966.98
2022-08-19T09:23:08.657Z,967.07
2022-08-19T09:24:08.631Z,967.05
2022-08-19T09:25:08.640Z,967.09
2022-08-19T09:26:08.639Z,967.03
2022-08-19T09:27:18.614Z,967.04
2022-08-19T09:28:20.583Z,967.03
2022-08-19T09:29:09.554Z,967.10
2022-08-19T09:30:08.559Z,967.08
2022-08-19T09:31:08.563Z,967.01
2022-08-19T09:32:08.525Z,967.05
2022-08-19T09:33:09.506Z,967.10
2022-08-19T09:34:08.545Z,967.05
2022-08-19T09:35:09.490Z,967.03
2022-08-19T09:36:08.827Z,966.98
2022-08-19T09:37:08.453Z,966.98
2022-08-19T09:38:08.421Z,966.92
2022-08-19T09:39:16.266Z,967.00
2022-08-19T09:40:09.496Z,966.95
2022-08-19T09:41:08.461Z,966.91
2022-08-19T09:42:16.614Z,966.93
2022-08-19T09:43:09.832Z,966.84
2022-08-19T09:44:08.357Z,966.89
2022-08-19T09:45:10.513Z,966.80
2022-08-19T09:46:08.331Z,966.83
2022-08-19T09:47:08.328Z,966.89
2022-08-19T09:48:09.462Z,966.94
2022-08-19T09:49:08.248Z,966.90
2022-08-19T09:50:08.246Z,966.95
2022-08-19T09:51:08.249Z,966.97
2022-08-19T09:52:08.206Z,966.99
2022-08-19T09:53:08.199Z,966.97
2022-08-19T09:54:08.168Z,966.94
2022-08-19T09:55:08.285Z,966.97
2022-08-19T09:56:08.311Z,966.98
2022-08-19T09:57:08.136Z,966.92
2022-08-19T09:58:08.109Z,967.00
2022-08-19T09:59:08.103Z,967.02
2022-08-19T10:00:08.077Z,966.98
2022-08-19T10:01:08.133Z,966.91
2022-08-19T10:02:10.798Z,966.91
2022-08-19T10:03:08.033Z,966.90
2022-08-19T10:04:19.727Z,966.90
2022-08-19T10:05:10.009Z,966.97
2022-08-19T10:06:15.183Z,966.91
2022-08-19T10:07:08.974Z,966.90
2022-08-19T10:08:13.396Z,966.93
2022-08-19T10:09:09.145Z,966.95
2022-08-19T10:10:07.952Z,966.88
2022-08-19T10:11:28.357Z,966.87
2022-08-19T10:12:11.118Z,966.94
2022-08-19T10:13:07.876Z,966.92
2022-08-19T10:14:07.889Z,966.95
2022-08-19T10:15:07.867Z,966.94
2022-08-19T10:16:07.858Z,966.88
2022-08-19T10:17:17.885Z,966.90
2022-08-19T10:18:08.791Z,966.92
2022-08-19T10:19:07.808Z,966.88
2022-08-19T10:20:07.763Z,966.86
2022-08-19T10:21:07.781Z,966.78
2022-08-19T10:22:07.740Z,966.80
2022-08-19T10:23:07.720Z,966.77
2022-08-19T10:24:09.349Z,966.81
2022-08-19T10:25:07.690Z,966.79
2022-08-19T10:26:07.730Z,966.76
2022-08-19T10:27:07.657Z,966.85
2022-08-19T10:28:10.581Z,966.78
2022-08-19T10:29:09.179Z,966.82
2022-08-19T10:30:10.007Z,966.84
2022-08-19T10:31:07.626Z,966.75
2022-08-19T10:32:09.811Z,966.83
2022-08-19T10:33:11.012Z,966.79
2022-08-19T10:34:09.992Z,966.77
2022-08-19T10:35:07.553Z,966.74
2022-08-19T10:36:07.552Z,966.68
2022-08-19T10:37:10.169Z,966.71
2022-08-19T10:38:07.520Z,966.68
2022-08-19T10:39:07.467Z,966.75
2022-08-19T10:40:07.495Z,966.65
2022-08-19T10:41:07.474Z,966.72
2022-08-19T10:42:07.414Z,966.67
2022-08-19T10:43:07.407Z,966.74
2022-08-19T10:44:07.388Z,966.73
2022-08-19T10:45:07.363Z,966.69
2022-08-19T10:46:13.914Z,966.74
2022-08-19T10:47:17.693Z,966.68
2022-08-19T10:48:08.315Z,966.71
2022-08-19T10:49:07.319Z,966.59
2022-08-19T10:50:07.274Z,966.61
2022-08-19T10:51:07.288Z,966.63
2022-08-19T10:52:10.276Z,966.60
2022-08-19T10:53:08.050Z,966.64
2022-08-19T10:54:07.299Z,966.65
2022-08-19T10:55:08.848Z,966.56
2022-08-19T10:56:07.219Z,966.60
2022-08-19T10:57:07.220Z,966.61
2022-08-19T10:58:07.432Z,966.65
2022-08-19T10:59:07.161Z,966.66
2022-08-19T11:00:07.119Z,966.63
2022-08-19T11:01:07.177Z,966.64
2022-08-19T11:02:07.104Z,966.61
2022-08-19T11:03:39.450Z,966.62
2022-08-19T11:04:07.128Z,966.60
2022-08-19T11:05:12.684Z,966.55
2022-08-19T11:06:08.071Z,966.56
2022-08-19T11:07:07.064Z,966.61
2022-08-19T11:08:17.690Z,966.56
2022-08-19T11:09:07.980Z,966.58
2022-08-19T11:10:10.279Z,966.57
2022-08-19T11:11:09.001Z,966.56
2022-08-19T11:12:06.936Z,966.53
2022-08-19T11:13:07.024Z,966.54
2022-08-19T11:14:06.898Z,966.51
2022-08-19T11:15:06.892Z,966.48
2022-08-19T11:16:07.985Z,966.51
2022-08-19T11:17:07.863Z,966.51
2022-08-19T11:18:06.834Z,966.40
2022-08-19T11:19:07.838Z,966.43
2022-08-19T11:20:06.959Z,966.40
2022-08-19T11:21:06.855Z,966.42
2022-08-19T11:22:06.778Z,966.40
2022-08-19T11:23:06.764Z,966.35
2022-08-19T11:24:06.755Z,966.43
2022-08-19T11:25:06.774Z,966.40
2022-08-19T11:26:06.756Z,966.31
2022-08-19T11:27:06.707Z,966.38
2022-08-19T11:28:06.718Z,966.35
2022-08-19T11:29:06.697Z,966.33
2022-08-19T11:30:06.648Z,966.34
2022-08-19T11:31:06.674Z,966.29
2022-08-19T11:32:06.620Z,966.23
2022-08-19T11:33:06.599Z,966.25
2022-08-19T11:34:06.587Z,966.22
2022-08-19T11:35:06.562Z,966.25
2022-08-19T11:36:06.584Z,966.24
2022-08-19T11:37:06.537Z,966.27
2022-08-19T11:38:09.778Z,966.19
2022-08-19T11:39:07.533Z,966.25
2022-08-19T11:40:06.660Z,966.22
2022-08-19T11:41:06.513Z,966.17
2022-08-19T11:42:06.486Z,966.12
2022-08-19T11:43:06.447Z,966.21
2022-08-19T11:44:06.450Z,966.16
2022-08-19T11:45:06.416Z,966.18
2022-08-19T11:46:06.429Z,966.17
2022-08-19T11:47:09.303Z,966.16
2022-08-19T11:48:06.357Z,966.22
2022-08-19T11:49:09.572Z,966.18
2022-08-19T11:50:07.340Z,966.16
2022-08-19T11:51:06.349Z,966.21
2022-08-19T11:52:06.322Z,966.14
2022-08-19T11:53:06.290Z,966.14
2022-08-19T11:54:06.283Z,966.22
2022-08-19T11:55:06.247Z,966.06
2022-08-19T11:56:06.266Z,966.15
2022-08-19T11:57:06.220Z,966.13
2022-08-19T11:58:06.211Z,966.12
2022-08-19T11:59:08.816Z,966.08
2022-08-19T12:00:06.175Z,966.12
2022-08-19T12:01:06.204Z,966.08
2022-08-19T12:02:06.181Z,966.05
2022-08-19T12:03:06.192Z,966.10
2022-08-19T12:04:06.187Z,966.08
2022-08-19T12:05:09.089Z,966.07
2022-08-19T12:06:08.135Z,966.07
2022-08-19T12:07:06.074Z,966.05
2022-08-19T12:08:06.070Z,966.10
2022-08-19T12:09:06.052Z,966.06
2022-08-19T12:10:06.056Z,966.15
2022-08-19T12:11:06.012Z,966.17
2022-08-19T12:12:06.021Z,966.16
2022-08-19T12:13:06.006Z,966.18
2022-08-19T12:14:05.976Z,966.12
2022-08-19T12:15:05.952Z,966.11
2022-08-19T12:16:05.936Z,966.14
2022-08-19T12:17:05.947Z,966.18
2022-08-19T12:18:05.933Z,966.16
2022-08-19T12:19:05.889Z,966.16
2022-08-19T12:20:05.871Z,966.19
2022-08-19T12:21:05.888Z,966.20
2022-08-19T12:22:05.851Z,966.24
2022-08-19T12:23:05.830Z,966.29
2022-08-19T12:24:05.806Z,966.22
2022-08-19T12:25:05.894Z,966.21
2022-08-19T12:26:05.814Z,966.21
2022-08-19T12:27:05.768Z,966.13
2022-08-19T12:28:06.748Z,966.17
2022-08-19T12:29:05.727Z,966.14
2022-08-19T12:30:05.735Z,966.10
2022-08-19T12:31:05.731Z,966.12